createdAt,value
2022-12-31T00:01:41.172Z,12.82
2022-12-31T00:05:52.884Z,12.90
2022-12-31T00:10:04.829Z,12.94
2022-12-31T00:14:16.490Z,12.83
2022-12-31T00:18:28.096Z,12.77
2022-12-31T00:22:39.723Z,12.83
2022-12-31T00:26:51.302Z,12.79
2022-12-31T00:31:19.383Z,12.73
2022-12-31T00:35:31.095Z,12.68
2022-12-31T00:39:42.718Z,12.67
2022-12-31T00:43:54.973Z,12.66
2022-12-31T00:48:06.608Z,12.62
2022-12-31T00:52:18.331Z,12.64
2022-12-31T00:56:31.373Z,12.59
2022-12-31T01:00:43.405Z,12.56
2022-12-31T01:04:55.061Z,12.51
2022-12-31T01:09:07.474Z,12.51
2022-12-31T01:13:20.365Z,12.41
2022-12-31T01:17:32.020Z,12.46
2022-12-31T01:21:45.177Z,12.42
2022-12-31T01:26:00.699Z,12.40
2022-12-31T01:30:12.679Z,12.44
2022-12-31T01:34:24.419Z,12.35
2022-12-31T01:38:37.034Z,12.43
2022-12-31T01:42:58.773Z,12.36
2022-12-31T01:47:16.057Z,12.32
2022-12-31T01:51:31.228Z,12.33
2022-12-31T01:55:48.721Z,12.39
2022-12-31T02:00:01.800Z,12.40
2022-12-31T02:04:16.615Z,12.35
2022-12-31T02:08:28.543Z,12.42
2022-12-31T02:12:40.437Z,12.36
2022-12-31T02:17:04.171Z,12.30
2022-12-31T02:21:42.930Z,12.38
2022-12-31T02:26:22.551Z,12.33
2022-12-31T02:30:36.397Z,12.31
2022-12-31T02:34:54.437Z,12.33
2022-12-31T02:39:09.236Z,12.33
2022-12-31T02:43:20.906Z,12.32
2022-12-31T02:47:54.679Z,12.33
2022-12-31T02:52:29.353Z,12.40
2022-12-31T02:57:23.660Z,12.31
2022-12-31T03:01:58.789Z,12.30
2022-12-31T03:06:12.151Z,12.28
2022-12-31T03:10:23.849Z,12.26
2022-12-31T03:14:35.578Z,12.30
2022-12-31T03:19:05.726Z,12.25
2022-12-31T03:23:24.143Z,12.26
2022-12-31T03:27:35.776Z,12.18
2022-12-31T03:31:47.479Z,12.17
2022-12-31T03:35:59.269Z,12.17
2022-12-31T03:40:13.480Z,12.14
2022-12-31T03:44:25.056Z,12.16
2022-12-31T03:48:36.686Z,12.12
2022-12-31T03:52:49.918Z,12.17
2022-12-31T03:57:01.514Z,12.13
2022-12-31T04:01:13.352Z,12.10
2022-12-31T04:05:25.302Z,12.19
2022-12-31T04:09:37.135Z,12.18
2022-12-31T04:13:48.740Z,12.18
2022-12-31T04:18:00.393Z,12.15
2022-12-31T04:22:12.070Z,12.13
2022-12-31T04:26:23.775Z,12.19
2022-12-31T04:30:35.549Z,12.19
2022-12-31T04:34:47.106Z,12.27
2022-12-31T04:38:58.746Z,12.24
2022-12-31T04:43:10.412Z,12.22
2022-12-31T04:47:24.023Z,12.25
2022-12-31T04:51:38.490Z,12.24
2022-12-31T04:55:50.469Z,12.24
2022-12-31T05:00:02.027Z,12.30
2022-12-31T05:04:13.702Z,12.26
2022-12-31T05:08:25.383Z,12.30
2022-12-31T05:12:37.014Z,12.30
2022-12-31T05:16:49.075Z,12.31
2022-12-31T05:21:00.982Z,12.32
2022-12-31T05:25:12.631Z,12.37
2022-12-31T05:29:24.312Z,12.28
2022-12-31T05:33:36.038Z,12.31
2022-12-31T05:37:47.669Z,12.32
2022-12-31T05:41:59.291Z,12.33
2022-12-31T05:46:11.019Z,12.36
2022-12-31T05:50:22.734Z,12.32
2022-12-31T05:54:40.337Z,12.38
2022-12-31T05:58:52.044Z,12.38
2022-12-31T06:03:03.796Z,12.47
2022-12-31T06:07:15.666Z,12.39
2022-12-31T06:11:27.307Z,12.39
2022-12-31T06:15:40.062Z,12.41
2022-12-31T06:19:51.722Z,12.45
2022-12-31T06:24:03.414Z,12.47
2022-12-31T06:28:20.019Z,12.51
2022-12-31T06:32:32.449Z,12.49
2022-12-31T06:36:44.155Z,12.51
2022-12-31T06:40:56.034Z,12.56
2022-12-31T06:45:08.104Z,12.59
2022-12-31T06:49:19.740Z,12.58
2022-12-31T06:53:31.724Z,12.70
2022-12-31T06:57:44.463Z,12.79
2022-12-31T07:02:03.289Z,12.88
2022-12-31T07:06:44.174Z,12.99
2022-12-31T07:11:05.953Z,13.08
2022-12-31T07:15:40.774Z,13.18
2022-12-31T07:20:28.465Z,13.28
2022-12-31T07:24:40.418Z,13.19
2022-12-31T07:29:11.977Z,13.27
2022-12-31T07:33:26.800Z,13.27
2022-12-31T07:37:47.599Z,13.25
2022-12-31T07:41:59.133Z,13.30
2022-12-31T07:46:25.521Z,13.22
2022-12-31T07:50:37.349Z,13.33
2022-12-31T07:54:49.080Z,13.30
2022-12-31T07:59:31.289Z,13.42
2022-12-31T08:04:09.218Z,13.42
2022-12-31T08:08:32.016Z,13.46
2022-12-31T08:12:45.612Z,13.50
2022-12-31T08:16:57.643Z,13.56
2022-12-31T08:21:28.198Z,13.41
2022-12-31T08:26:15.777Z,13.40
2022-12-31T08:30:50.331Z,13.32
2022-12-31T08:35:39.499Z,13.33
2022-12-31T08:40:18.134Z,13.30
2022-12-31T08:44:44.433Z,13.25
2022-12-31T08:48:56.414Z,13.18
2022-12-31T08:53:08.326Z,13.17
2022-12-31T08:57:19.911Z,13.16
2022-12-31T09:02:24.039Z,13.23
2022-12-31T09:06:46.215Z,13.22
2022-12-31T09:11:22.634Z,13.27
2022-12-31T09:16:01.961Z,13.30
2022-12-31T09:20:44.463Z,13.38
2022-12-31T09:24:56.591Z,13.42
2022-12-31T09:29:33.127Z,13.47
2022-12-31T09:33:54.485Z,13.49
2022-12-31T09:38:30.875Z,13.50
2022-12-31T09:42:54.704Z,13.59
2022-12-31T09:47:53.963Z,13.66
2022-12-31T09:52:39.545Z,13.78
2022-12-31T09:57:28.988Z,13.88
2022-12-31T10:02:00.758Z,14.02
2022-12-31T10:06:23.505Z,14.10
2022-12-31T10:10:49.644Z,14.23
2022-12-31T10:15:34.753Z,14.26
2022-12-31T10:20:07.700Z,14.38
2022-12-31T10:24:37.608Z,14.50
2022-12-31T10:28:54.219Z,14.62
2022-12-31T10:33:16.595Z,14.68
2022-12-31T10:37:32.862Z,14.82
2022-12-31T10:42:09.808Z,14.91
2022-12-31T10:46:46.579Z,14.97
2022-12-31T10:51:10.432Z,14.94
2022-12-31T10:55:59.675Z,14.98
2022-12-31T11:00:18.491Z,15.00
2022-12-31T11:04:56.726Z,15.02
2022-12-31T11:09:45.439Z,15.06
2022-12-31T11:14:21.638Z,15.01
2022-12-31T11:18:39.190Z,14.96
2022-12-31T11:23:24.740Z,15.04
2022-12-31T11:28:03.312Z,14.96
2022-12-31T11:32:27.023Z,15.04
2022-12-31T11:36:51.733Z,15.12
2022-12-31T11:41:14.817Z,15.23
2022-12-31T11:46:01.899Z,15.25
2022-12-31T11:50:13.551Z,15.34
2022-12-31T11:55:02.752Z,15.38
2022-12-31T11:59:19.313Z,15.38
2022-12-31T12:03:32.731Z,15.37
2022-12-31T12:07:44.842Z,15.43
2022-12-31T12:12:03.604Z,15.41
2022-12-31T12:16:16.056Z,15.59
2022-12-31T12:20:35.452Z,15.58
2022-12-31T12:24:56.214Z,15.56
2022-12-31T12:29:28.729Z,15.53
2022-12-31T12:33:46.511Z,15.45
2022-12-31T12:38:07.326Z,15.40
2022-12-31T12:48:34.377Z,15.22
2022-12-31T12:52:59.933Z,15.19
2022-12-31T12:57:29.449Z,15.18
2022-12-31T13:01:56.369Z,15.19
2022-12-31T13:06:27.783Z,15.24
2022-12-31T13:11:01.059Z,15.24
2022-12-31T13:15:21.846Z,15.17
2022-12-31T13:19:52.998Z,15.21
2022-12-31T13:24:16.648Z,15.15
2022-12-31T13:28:30.512Z,15.19
2022-12-31T13:32:51.288Z,15.17
2022-12-31T13:37:06.848Z,15.19
2022-12-31T13:41:32.704Z,15.21
2022-12-31T13:45:47.341Z,15.15
2022-12-31T13:50:15.169Z,15.13
2022-12-31T13:54:32.063Z,15.14
2022-12-31T13:58:49.970Z,15.09
2022-12-31T14:03:04.553Z,15.10
2022-12-31T14:07:41.882Z,15.10
2022-12-31T14:12:30.023Z,15.10
2022-12-31T14:17:12.578Z,15.05
2022-12-31T14:21:33.557Z,15.09
2022-12-31T14:25:55.260Z,15.08
2022-12-31T14:30:16.477Z,15.11
2022-12-31T14:34:55.500Z,15.21
2022-12-31T14:39:22.340Z,15.13
2022-12-31T14:43:57.366Z,15.22
2022-12-31T14:48:33.148Z,15.20
2022-12-31T14:53:19.023Z,15.23
2022-12-31T14:58:01.665Z,15.20
2022-12-31T15:02:29.037Z,15.20
2022-12-31T15:07:16.643Z,15.18
2022-12-31T15:11:37.735Z,15.14
2022-12-31T15:15:52.292Z,15.22
2022-12-31T15:20:47.902Z,15.22
2022-12-31T15:25:00.993Z,15.16
2022-12-31T15:29:30.909Z,15.21
2022-12-31T15:34:06.599Z,15.24
2022-12-31T15:38:30.094Z,15.20
2022-12-31T15:42:50.100Z,15.23
2022-12-31T15:47:17.983Z,15.30
2022-12-31T15:51:42.613Z,15.33
2022-12-31T15:55:57.775Z,15.28
2022-12-31T16:00:20.398Z,15.33
2022-12-31T16:04:39.382Z,15.37
2022-12-31T16:08:51.336Z,15.34
2022-12-31T16:13:03.027Z,15.35
2022-12-31T16:17:31.688Z,15.31
2022-12-31T16:21:46.347Z,15.33
2022-12-31T16:26:01.631Z,15.33
2022-12-31T16:30:22.933Z,15.37
2022-12-31T16:34:38.477Z,15.34
2022-12-31T16:38:50.148Z,15.34
2022-12-31T16:43:01.926Z,15.25
2022-12-31T16:47:24.541Z,15.29
2022-12-31T16:51:37.851Z,15.27
2022-12-31T16:56:04.762Z,15.32
2022-12-31T17:00:18.920Z,15.24
2022-12-31T17:04:30.808Z,15.21
2022-12-31T17:15:07.517Z,15.09
2022-12-31T17:19:46.039Z,15.14
2022-12-31T17:24:04.863Z,14.96
2022-12-31T17:28:23.257Z,14.97
2022-12-31T17:32:38.269Z,14.84
2022-12-31T17:36:58.478Z,14.82
2022-12-31T17:41:30.510Z,14.85
2022-12-31T17:45:44.748Z,14.90
2022-12-31T17:49:56.543Z,14.90
2022-12-31T17:54:15.677Z,14.87
2022-12-31T17:58:31.808Z,14.71
2022-12-31T18:02:43.974Z,14.73
2022-12-31T18:06:55.879Z,14.66
2022-12-31T18:11:12.238Z,14.79
2022-12-31T18:15:25.002Z,14.75
2022-12-31T18:20:03.538Z,14.82
2022-12-31T18:24:14.046Z,14.89
2022-12-31T18:28:25.789Z,14.96
2022-12-31T18:32:38.870Z,14.96
2022-12-31T18:36:50.847Z,14.96
2022-12-31T18:41:02.661Z,15.03
2022-12-31T18:45:17.953Z,14.92
2022-12-31T18:49:29.606Z,14.96
2022-12-31T18:53:41.685Z,14.98
2022-12-31T18:57:53.500Z,14.89
2022-12-31T19:02:11.729Z,14.82
2022-12-31T19:06:24.119Z,14.73
2022-12-31T19:10:36.001Z,14.76
2022-12-31T19:15:04.311Z,14.73
2022-12-31T19:29:48.626Z,14.92
2022-12-31T19:34:03.396Z,14.84
2022-12-31T19:38:19.907Z,14.87
2022-12-31T19:42:31.606Z,14.83
2022-12-31T19:46:43.886Z,14.86
2022-12-31T19:50:55.645Z,14.71
2022-12-31T19:55:07.862Z,14.60
2022-12-31T19:59:19.581Z,14.69
2022-12-31T20:03:32.912Z,14.62
2022-12-31T20:07:44.692Z,14.63
2022-12-31T20:11:56.392Z,14.62
2022-12-31T20:16:10.027Z,14.46
2022-12-31T20:20:21.835Z,14.46
2022-12-31T20:24:33.542Z,14.50
2022-12-31T20:28:45.346Z,14.50
2022-12-31T20:32:57.039Z,14.46
2022-12-31T20:37:08.713Z,14.51
2022-12-31T20:41:22.400Z,14.59
2022-12-31T20:45:34.073Z,14.60
2022-12-31T20:50:10.504Z,14.57
2022-12-31T20:54:18.314Z,14.55
2022-12-31T20:58:29.888Z,14.58
2022-12-31T21:02:43.278Z,14.46
2022-12-31T21:06:55.946Z,14.65
2022-12-31T21:11:28.075Z,14.51
2022-12-31T21:15:39.780Z,14.52
2022-12-31T21:19:51.633Z,14.58
2022-12-31T21:24:03.811Z,14.56
2022-12-31T21:28:15.599Z,14.52
2022-12-31T21:32:27.366Z,14.49
2022-12-31T21:36:39.057Z,14.60
2022-12-31T21:40:50.803Z,14.59
2022-12-31T21:45:02.466Z,14.78
2022-12-31T21:49:14.108Z,14.68
2022-12-31T21:53:32.085Z,14.90
2022-12-31T21:58:24.069Z,15.02
2022-12-31T22:02:39.598Z,14.98
2022-12-31T22:06:52.105Z,15.00
2022-12-31T22:11:03.797Z,15.16
2022-12-31T22:15:16.450Z,15.12
2022-12-31T22:19:28.154Z,15.25
2022-12-31T22:23:40.529Z,15.18
2022-12-31T22:28:27.628Z,15.16
2022-12-31T22:32:24.102Z,15.23
2022-12-31T22:36:35.892Z,15.17
2022-12-31T22:40:47.547Z,15.22
2022-12-31T22:44:59.202Z,15.18
2022-12-31T22:49:11.264Z,15.12
2022-12-31T22:53:23.071Z,15.32
2022-12-31T22:57:34.821Z,15.19
2022-12-31T23:01:46.737Z,15.32
2022-12-31T23:05:58.559Z,15.28
2022-12-31T23:10:29.950Z,15.24
2022-12-31T23:15:00.053Z,15.34
2022-12-31T23:19:31.358Z,15.41
2022-12-31T23:23:43.023Z,15.33
2022-12-31T23:27:54.715Z,15.33
2022-12-31T23:32:07.391Z,15.36
2022-12-31T23:36:19.162Z,15.43
2022-12-31T23:40:34.537Z,15.49
2022-12-31T23:44:46.364Z,15.44
2022-12-31T23:48:58.091Z,15.51
2022-12-31T23:53:10.114Z,15.53
2022-12-31T23:57:22.794Z,15.48
